sensor_id;sensor_type;location;lat;lon;timestamp;temperature;humidity
41060;DHT22;26811;53.160;8.202;2023-11-18T00:03:29;2.40;99.90
41060;DHT22;26811;53.160;8.202;2023-11-18T00:08:30;2.40;99.90
41060;DHT22;26811;53.160;8.202;2023-11-18T00:13:31;2.30;99.90
41060;DHT22;26811;53.160;8.202;2023-11-18T00:18:31;2.30;99.90
41060;DHT22;26811;53.160;8.202;2023-11-18T00:23:32;2.30;99.90
41060;DHT22;26811;53.160;8.202;2023-11-18T00:28:33;2.50;99.90
41060;DHT22;26811;53.160;8.202;2023-11-18T00:33:33;2.70;99.90
41060;DHT22;26811;53.160;8.202;2023-11-18T00:38:34;2.90;99.90
41060;DHT22;26811;53.160;8.202;2023-11-18T00:43:34;3.10;99.90
41060;DHT22;26811;53.160;8.202;2023-11-18T00:48:35;3.10;99.90
41060;DHT22;26811;53.160;8.202;2023-11-18T00:53:35;3.20;99.90
41060;DHT22;26811;53.160;8.202;2023-11-18T00:58:36;3.30;99.90
41060;DHT22;26811;53.160;8.202;2023-11-18T01:03:40;3.30;99.90
41060;DHT22;26811;53.160;8.202;2023-11-18T01:08:44;3.40;99.90
41060;DHT22;26811;53.160;8.202;2023-11-18T01:13:46;3.40;99.90
41060;DHT22;26811;53.160;8.202;2023-11-18T01:18:46;3.40;99.90
41060;DHT22;26811;53.160;8.202;2023-11-18T01:23:47;3.50;99.90
41060;DHT22;26811;53.160;8.202;2023-11-18T01:28:49;3.50;99.90
41060;DHT22;26811;53.160;8.202;2023-11-18T01:33:49;3.60;99.90
41060;DHT22;26811;53.160;8.202;2023-11-18T01:38:50;3.60;99.90
41060;DHT22;26811;53.160;8.202;2023-11-18T01:43:51;3.60;99.90
41060;DHT22;26811;53.160;8.202;2023-11-18T01:48:52;3.70;99.90
41060;DHT22;26811;53.160;8.202;2023-11-18T01:53:53;3.80;99.90
41060;DHT22;26811;53.160;8.202;2023-11-18T01:58:54;3.80;99.90
41060;DHT22;26811;53.160;8.202;2023-11-18T02:03:55;3.80;99.90
41060;DHT22;26811;53.160;8.202;2023-11-18T02:08:56;3.90;99.90
41060;DHT22;26811;53.160;8.202;2023-11-18T02:13:59;3.90;99.90
41060;DHT22;26811;53.160;8.202;2023-11-18T02:19:04;3.90;99.90
41060;DHT22;26811;53.160;8.202;2023-11-18T02:24:09;3.90;99.90
41060;DHT22;26811;53.160;8.202;2023-11-18T02:29:10;3.90;99.90
41060;DHT22;26811;53.160;8.202;2023-11-18T02:34:14;3.90;99.90
41060;DHT22;26811;53.160;8.202;2023-11-18T02:39:38;4.00;99.90
41060;DHT22;26811;53.160;8.202;2023-11-18T02:44:39;4.00;99.90
41060;DHT22;26811;53.160;8.202;2023-11-18T02:49:41;4.00;99.90
41060;DHT22;26811;53.160;8.202;2023-11-18T02:54:42;4.00;99.90
41060;DHT22;26811;53.160;8.202;2023-11-18T02:59:42;4.10;99.90
41060;DHT22;26811;53.160;8.202;2023-11-18T03:04:43;4.10;99.90
41060;DHT22;26811;53.160;8.202;2023-11-18T03:09:45;4.10;99.90
41060;DHT22;26811;53.160;8.202;2023-11-18T03:14:47;4.10;99.90
41060;DHT22;26811;53.160;8.202;2023-11-18T03:19:49;4.10;99.90
41060;DHT22;26811;53.160;8.202;2023-11-18T03:24:50;4.10;99.90
41060;DHT22;26811;53.160;8.202;2023-11-18T03:29:51;4.10;99.90
41060;DHT22;26811;53.160;8.202;2023-11-18T03:34:51;4.10;99.90
41060;DHT22;26811;53.160;8.202;2023-11-18T03:39:52;4.10;99.90
41060;DHT22;26811;53.160;8.202;2023-11-18T03:44:53;4.20;99.90
41060;DHT22;26811;53.160;8.202;2023-11-18T03:49:53;4.20;99.90
41060;DHT22;26811;53.160;8.202;2023-11-18T03:54:54;4.20;99.90
41060;DHT22;26811;53.160;8.202;2023-11-18T03:59:55;4.10;99.90
41060;DHT22;26811;53.160;8.202;2023-11-18T04:04:55;4.10;99.90
41060;DHT22;26811;53.160;8.202;2023-11-18T04:09:56;4.10;99.90
41060;DHT22;26811;53.160;8.202;2023-11-18T04:14:56;4.10;99.90
41060;DHT22;26811;53.160;8.202;2023-11-18T04:19:57;4.00;99.90
41060;DHT22;26811;53.160;8.202;2023-11-18T04:24:57;4.00;99.90
41060;DHT22;26811;53.160;8.202;2023-11-18T04:29:58;4.00;99.90
41060;DHT22;26811;53.160;8.202;2023-11-18T04:34:59;3.90;99.90
41060;DHT22;26811;53.160;8.202;2023-11-18T04:40:07;3.90;99.90
41060;DHT22;26811;53.160;8.202;2023-11-18T04:45:12;3.90;99.90
41060;DHT22;26811;53.160;8.202;2023-11-18T04:50:14;3.80;99.90
41060;DHT22;26811;53.160;8.202;2023-11-18T04:55:15;3.80;99.90
41060;DHT22;26811;53.160;8.202;2023-11-18T05:00:18;3.80;99.90
41060;DHT22;26811;53.160;8.202;2023-11-18T05:05:19;3.70;99.90
41060;DHT22;26811;53.160;8.202;2023-11-18T05:10:20;3.70;99.90
41060;DHT22;26811;53.160;8.202;2023-11-18T05:15:21;3.60;99.90
41060;DHT22;26811;53.160;8.202;2023-11-18T05:20:24;3.60;99.90
41060;DHT22;26811;53.160;8.202;2023-11-18T05:25:25;3.60;99.90
41060;DHT22;26811;53.160;8.202;2023-11-18T05:30:26;3.50;99.90
41060;DHT22;26811;53.160;8.202;2023-11-18T05:35:26;3.50;99.90
41060;DHT22;26811;53.160;8.202;2023-11-18T05:40:28;3.50;99.90
41060;DHT22;26811;53.160;8.202;2023-11-18T05:45:30;3.50;99.90
41060;DHT22;26811;53.160;8.202;2023-11-18T05:50:44;3.50;99.90
41060;DHT22;26811;53.160;8.202;2023-11-18T05:55:45;3.50;99.90
41060;DHT22;26811;53.160;8.202;2023-11-18T06:00:47;3.50;99.90
41060;DHT22;26811;53.160;8.202;2023-11-18T06:05:47;3.50;99.90
41060;DHT22;26811;53.160;8.202;2023-11-18T06:10:48;3.50;99.90
41060;DHT22;26811;53.160;8.202;2023-11-18T06:15:49;3.40;99.90
41060;DHT22;26811;53.160;8.202;2023-11-18T06:20:51;3.40;99.90
41060;DHT22;26811;53.160;8.202;2023-11-18T06:25:52;3.40;99.90
41060;DHT22;26811;53.160;8.202;2023-11-18T06:30:52;3.40;99.90
41060;DHT22;26811;53.160;8.202;2023-11-18T06:35:54;3.40;99.90
41060;DHT22;26811;53.160;8.202;2023-11-18T06:40:56;3.40;99.90
41060;DHT22;26811;53.160;8.202;2023-11-18T06:45:58;3.40;99.90
41060;DHT22;26811;53.160;8.202;2023-11-18T06:50:59;3.30;99.90
41060;DHT22;26811;53.160;8.202;2023-11-18T06:55:59;3.40;99.90
41060;DHT22;26811;53.160;8.202;2023-11-18T07:01:00;3.40;99.90
41060;DHT22;26811;53.160;8.202;2023-11-18T07:06:00;3.40;99.90
41060;DHT22;26811;53.160;8.202;2023-11-18T07:11:01;3.40;99.90
41060;DHT22;26811;53.160;8.202;2023-11-18T07:16:02;3.40;99.90
41060;DHT22;26811;53.160;8.202;2023-11-18T07:21:04;3.40;99.90
41060;DHT22;26811;53.160;8.202;2023-11-18T07:26:05;3.40;99.90
41060;DHT22;26811;53.160;8.202;2023-11-18T07:31:06;3.40;99.90
41060;DHT22;26811;53.160;8.202;2023-11-18T07:36:08;3.40;99.90
41060;DHT22;26811;53.160;8.202;2023-11-18T07:41:11;3.50;99.90
41060;DHT22;26811;53.160;8.202;2023-11-18T07:46:23;3.50;99.90
41060;DHT22;26811;53.160;8.202;2023-11-18T07:51:24;3.50;99.90
41060;DHT22;26811;53.160;8.202;2023-11-18T07:56:25;3.60;99.90
41060;DHT22;26811;53.160;8.202;2023-11-18T08:01:27;3.60;99.90
41060;DHT22;26811;53.160;8.202;2023-11-18T08:06:27;3.60;99.90
41060;DHT22;26811;53.160;8.202;2023-11-18T08:11:28;3.70;99.90
41060;DHT22;26811;53.160;8.202;2023-11-18T08:16:29;3.80;99.90
41060;DHT22;26811;53.160;8.202;2023-11-18T08:21:30;3.80;99.90
41060;DHT22;26811;53.160;8.202;2023-11-18T08:26:30;3.90;99.90
41060;DHT22;26811;53.160;8.202;2023-11-18T08:31:31;3.90;99.90
41060;DHT22;26811;53.160;8.202;2023-11-18T08:36:33;4.00;99.90
41060;DHT22;26811;53.160;8.202;2023-11-18T08:41:34;4.00;99.90
41060;DHT22;26811;53.160;8.202;2023-11-18T08:46:34;4.20;99.90
41060;DHT22;26811;53.160;8.202;2023-11-18T08:51:35;4.30;99.90
41060;DHT22;26811;53.160;8.202;2023-11-18T08:56:39;4.30;99.90
41060;DHT22;26811;53.160;8.202;2023-11-18T09:01:42;4.40;99.90
41060;DHT22;26811;53.160;8.202;2023-11-18T09:06:42;4.50;99.90
41060;DHT22;26811;53.160;8.202;2023-11-18T09:11:43;4.50;99.90
41060;DHT22;26811;53.160;8.202;2023-11-18T09:16:44;4.60;99.90
41060;DHT22;26811;53.160;8.202;2023-11-18T09:21:44;4.60;99.90
41060;DHT22;26811;53.160;8.202;2023-11-18T09:26:46;4.70;99.90
41060;DHT22;26811;53.160;8.202;2023-11-18T09:31:51;4.80;99.90
41060;DHT22;26811;53.160;8.202;2023-11-18T09:36:54;4.90;99.90
41060;DHT22;26811;53.160;8.202;2023-11-18T09:41:56;5.00;99.90
41060;DHT22;26811;53.160;8.202;2023-11-18T09:46:57;5.00;99.90
41060;DHT22;26811;53.160;8.202;2023-11-18T09:52:06;5.00;99.90
41060;DHT22;26811;53.160;8.202;2023-11-18T10:02:39;5.00;99.90
41060;DHT22;26811;53.160;8.202;2023-11-18T10:07:44;5.00;99.90
41060;DHT22;26811;53.160;8.202;2023-11-18T10:12:51;5.00;99.90
41060;DHT22;26811;53.160;8.202;2023-11-18T10:17:52;5.00;99.90
41060;DHT22;26811;53.160;8.202;2023-11-18T10:23:22;5.00;99.90
41060;DHT22;26811;53.160;8.202;2023-11-18T10:33:36;5.10;99.90
41060;DHT22;26811;53.160;8.202;2023-11-18T10:38:40;5.20;99.90
41060;DHT22;26811;53.160;8.202;2023-11-18T10:44:07;5.40;99.90
41060;DHT22;26811;53.160;8.202;2023-11-18T10:49:16;5.50;99.90
41060;DHT22;26811;53.160;8.202;2023-11-18T10:54:17;5.60;99.90
41060;DHT22;26811;53.160;8.202;2023-11-18T10:59:19;5.60;99.90
41060;DHT22;26811;53.160;8.202;2023-11-18T11:04:20;5.70;99.90
41060;DHT22;26811;53.160;8.202;2023-11-18T11:09:24;5.70;99.90
41060;DHT22;26811;53.160;8.202;2023-11-18T11:14:32;5.70;99.90
41060;DHT22;26811;53.160;8.202;2023-11-18T11:20:07;5.70;99.90
41060;DHT22;26811;53.160;8.202;2023-11-18T11:25:40;5.70;99.90
41060;DHT22;26811;53.160;8.202;2023-11-18T11:35:55;5.80;99.90
41060;DHT22;26811;53.160;8.202;2023-11-18T11:41:02;5.80;99.90
41060;DHT22;26811;53.160;8.202;2023-11-18T11:46:08;5.90;99.90
41060;DHT22;26811;53.160;8.202;2023-11-18T11:51:26;6.00;99.90
41060;DHT22;26811;53.160;8.202;2023-11-18T11:56:43;6.10;99.90
41060;DHT22;26811;53.160;8.202;2023-11-18T12:01:47;6.10;99.90
41060;DHT22;26811;53.160;8.202;2023-11-18T12:06:52;6.10;99.90
41060;DHT22;26811;53.160;8.202;2023-11-18T12:11:56;6.00;99.90
41060;DHT22;26811;53.160;8.202;2023-11-18T12:17:03;6.00;99.90
41060;DHT22;26811;53.160;8.202;2023-11-18T12:22:21;6.00;99.90
41060;DHT22;26811;53.160;8.202;2023-11-18T12:32:59;6.00;99.90
41060;DHT22;26811;53.160;8.202;2023-11-18T12:49:08;5.90;99.90
41060;DHT22;26811;53.160;8.202;2023-11-18T12:54:15;5.90;99.90
41060;DHT22;26811;53.160;8.202;2023-11-18T12:59:17;5.90;99.90
41060;DHT22;26811;53.160;8.202;2023-11-18T13:04:21;5.90;99.90
41060;DHT22;26811;53.160;8.202;2023-11-18T13:09:22;5.90;99.90
41060;DHT22;26811;53.160;8.202;2023-11-18T13:14:27;5.90;99.90
41060;DHT22;26811;53.160;8.202;2023-11-18T13:19:29;5.90;99.90
41060;DHT22;26811;53.160;8.202;2023-11-18T13:24:30;5.90;99.90
41060;DHT22;26811;53.160;8.202;2023-11-18T13:29:31;5.90;99.90
41060;DHT22;26811;53.160;8.202;2023-11-18T13:34:36;5.90;99.90
41060;DHT22;26811;53.160;8.202;2023-11-18T13:39:38;5.90;99.90
41060;DHT22;26811;53.160;8.202;2023-11-18T13:44:38;6.00;99.90
41060;DHT22;26811;53.160;8.202;2023-11-18T13:49:39;6.00;99.90
41060;DHT22;26811;53.160;8.202;2023-11-18T13:54:40;6.00;99.90
41060;DHT22;26811;53.160;8.202;2023-11-18T13:59:45;6.00;99.90
41060;DHT22;26811;53.160;8.202;2023-11-18T14:04:45;6.00;99.90
41060;DHT22;26811;53.160;8.202;2023-11-18T14:09:47;6.00;99.90
41060;DHT22;26811;53.160;8.202;2023-11-18T14:14:47;6.00;99.90
41060;DHT22;26811;53.160;8.202;2023-11-18T14:19:49;5.90;99.90
41060;DHT22;26811;53.160;8.202;2023-11-18T14:24:52;5.90;99.90
41060;DHT22;26811;53.160;8.202;2023-11-18T14:29:58;5.80;99.90
41060;DHT22;26811;53.160;8.202;2023-11-18T14:34:58;5.80;99.90
41060;DHT22;26811;53.160;8.202;2023-11-18T14:39:59;5.80;99.90
41060;DHT22;26811;53.160;8.202;2023-11-18T14:44:59;5.70;99.90
41060;DHT22;26811;53.160;8.202;2023-11-18T14:50:00;5.70;99.90
41060;DHT22;26811;53.160;8.202;2023-11-18T14:55:02;5.70;99.90
41060;DHT22;26811;53.160;8.202;2023-11-18T15:00:05;5.70;99.90
41060;DHT22;26811;53.160;8.202;2023-11-18T15:05:21;5.60;99.90
41060;DHT22;26811;53.160;8.202;2023-11-18T15:10:28;5.60;99.90
41060;DHT22;26811;53.160;8.202;2023-11-18T15:15:30;5.60;99.90
41060;DHT22;26811;53.160;8.202;2023-11-18T15:20:35;5.60;99.90
41060;DHT22;26811;53.160;8.202;2023-11-18T15:25:36;5.60;99.90
41060;DHT22;26811;53.160;8.202;2023-11-18T15:30:40;5.60;99.90
41060;DHT22;26811;53.160;8.202;2023-11-18T15:35:41;5.50;99.90
41060;DHT22;26811;53.160;8.202;2023-11-18T15:40:42;5.60;99.90
41060;DHT22;26811;53.160;8.202;2023-11-18T15:45:43;5.50;99.90
41060;DHT22;26811;53.160;8.202;2023-11-18T15:50:48;5.60;99.90
41060;DHT22;26811;53.160;8.202;2023-11-18T15:55:50;5.50;99.90
41060;DHT22;26811;53.160;8.202;2023-11-18T16:00:50;5.50;99.90
41060;DHT22;26811;53.160;8.202;2023-11-18T16:05:52;5.50;99.90
41060;DHT22;26811;53.160;8.202;2023-11-18T16:10:53;5.50;99.90
41060;DHT22;26811;53.160;8.202;2023-11-18T16:15:54;5.50;99.90
41060;DHT22;26811;53.160;8.202;2023-11-18T16:20:54;5.60;99.90
41060;DHT22;26811;53.160;8.202;2023-11-18T16:25:55;5.50;99.90
41060;DHT22;26811;53.160;8.202;2023-11-18T16:30:56;5.50;99.90
41060;DHT22;26811;53.160;8.202;2023-11-18T16:35:57;5.50;99.90
41060;DHT22;26811;53.160;8.202;2023-11-18T16:40:59;5.50;99.90
41060;DHT22;26811;53.160;8.202;2023-11-18T16:45:59;5.50;99.90
41060;DHT22;26811;53.160;8.202;2023-11-18T16:51:01;5.50;99.90
41060;DHT22;26811;53.160;8.202;2023-11-18T16:56:02;5.50;99.90
41060;DHT22;26811;53.160;8.202;2023-11-18T17:01:04;5.50;99.90
41060;DHT22;26811;53.160;8.202;2023-11-18T17:06:05;5.50;99.90
41060;DHT22;26811;53.160;8.202;2023-11-18T17:11:06;5.50;99.90
41060;DHT22;26811;53.160;8.202;2023-11-18T17:16:09;5.50;99.90
41060;DHT22;26811;53.160;8.202;2023-11-18T17:21:10;5.60;99.90
41060;DHT22;26811;53.160;8.202;2023-11-18T17:26:11;5.60;99.90
41060;DHT22;26811;53.160;8.202;2023-11-18T17:31:12;5.60;99.90
41060;DHT22;26811;53.160;8.202;2023-11-18T17:36:12;5.60;99.90
41060;DHT22;26811;53.160;8.202;2023-11-18T17:41:14;5.60;99.90
41060;DHT22;26811;53.160;8.202;2023-11-18T17:46:14;5.60;99.90
41060;DHT22;26811;53.160;8.202;2023-11-18T17:51:17;5.60;99.90
41060;DHT22;26811;53.160;8.202;2023-11-18T17:56:18;5.60;99.90
41060;DHT22;26811;53.160;8.202;2023-11-18T18:01:18;5.60;99.90
41060;DHT22;26811;53.160;8.202;2023-11-18T18:06:18;5.60;99.90
41060;DHT22;26811;53.160;8.202;2023-11-18T18:11:21;5.60;99.90
41060;DHT22;26811;53.160;8.202;2023-11-18T18:16:22;5.60;99.90
41060;DHT22;26811;53.160;8.202;2023-11-18T18:21:22;5.60;99.90
41060;DHT22;26811;53.160;8.202;2023-11-18T18:26:23;5.60;99.90
41060;DHT22;26811;53.160;8.202;2023-11-18T18:31:23;5.60;99.90
41060;DHT22;26811;53.160;8.202;2023-11-18T18:36:24;5.60;99.90
41060;DHT22;26811;53.160;8.202;2023-11-18T18:41:24;5.60;99.90
41060;DHT22;26811;53.160;8.202;2023-11-18T18:46:25;5.70;99.90
41060;DHT22;26811;53.160;8.202;2023-11-18T18:51:27;5.70;99.90
41060;DHT22;26811;53.160;8.202;2023-11-18T18:56:27;5.70;99.90
41060;DHT22;26811;53.160;8.202;2023-11-18T19:01:29;5.70;99.90
41060;DHT22;26811;53.160;8.202;2023-11-18T19:06:29;5.70;99.90
41060;DHT22;26811;53.160;8.202;2023-11-18T19:11:31;5.80;99.90
41060;DHT22;26811;53.160;8.202;2023-11-18T19:16:32;5.80;99.90
41060;DHT22;26811;53.160;8.202;2023-11-18T19:21:32;5.80;99.90
41060;DHT22;26811;53.160;8.202;2023-11-18T19:26:33;5.80;99.90
41060;DHT22;26811;53.160;8.202;2023-11-18T19:31:36;5.80;99.90
41060;DHT22;26811;53.160;8.202;2023-11-18T19:36:36;5.80;99.90
41060;DHT22;26811;53.160;8.202;2023-11-18T19:41:37;5.80;99.90
41060;DHT22;26811;53.160;8.202;2023-11-18T19:46:38;5.80;99.90
41060;DHT22;26811;53.160;8.202;2023-11-18T19:51:39;5.80;99.90
41060;DHT22;26811;53.160;8.202;2023-11-18T19:56:39;5.80;99.90
41060;DHT22;26811;53.160;8.202;2023-11-18T20:01:40;5.80;99.90
41060;DHT22;26811;53.160;8.202;2023-11-18T20:06:40;5.80;99.90
41060;DHT22;26811;53.160;8.202;2023-11-18T20:11:51;5.80;99.90
41060;DHT22;26811;53.160;8.202;2023-11-18T20:16:52;5.90;99.90
41060;DHT22;26811;53.160;8.202;2023-11-18T20:21:55;5.90;99.90
41060;DHT22;26811;53.160;8.202;2023-11-18T20:26:55;5.90;99.90
41060;DHT22;26811;53.160;8.202;2023-11-18T20:31:56;6.00;99.90
41060;DHT22;26811;53.160;8.202;2023-11-18T20:36:56;6.00;99.90
41060;DHT22;26811;53.160;8.202;2023-11-18T20:41:57;6.00;99.90
41060;DHT22;26811;53.160;8.202;2023-11-18T20:46:57;6.00;99.90
41060;DHT22;26811;53.160;8.202;2023-11-18T20:51:58;6.00;99.90
41060;DHT22;26811;53.160;8.202;2023-11-18T20:56:59;6.00;99.90
41060;DHT22;26811;53.160;8.202;2023-11-18T21:01:59;6.10;99.90
41060;DHT22;26811;53.160;8.202;2023-11-18T21:07:00;6.20;99.90
41060;DHT22;26811;53.160;8.202;2023-11-18T21:12:01;6.20;99.90
41060;DHT22;26811;53.160;8.202;2023-11-18T21:17:02;6.30;99.90
41060;DHT22;26811;53.160;8.202;2023-11-18T21:22:05;6.20;99.90
41060;DHT22;26811;53.160;8.202;2023-11-18T21:27:06;6.30;99.90
41060;DHT22;26811;53.160;8.202;2023-11-18T21:32:07;6.30;99.90
41060;DHT22;26811;53.160;8.202;2023-11-18T21:37:10;6.30;99.90
41060;DHT22;26811;53.160;8.202;2023-11-18T21:42:10;6.40;99.90
41060;DHT22;26811;53.160;8.202;2023-11-18T21:47:13;6.40;99.90
41060;DHT22;26811;53.160;8.202;2023-11-18T21:52:13;6.40;99.90
41060;DHT22;26811;53.160;8.202;2023-11-18T21:57:14;6.40;99.90
41060;DHT22;26811;53.160;8.202;2023-11-18T22:02:16;6.50;99.90
41060;DHT22;26811;53.160;8.202;2023-11-18T22:07:16;6.50;99.90
41060;DHT22;26811;53.160;8.202;2023-11-18T22:12:18;6.60;99.90
41060;DHT22;26811;53.160;8.202;2023-11-18T22:17:20;6.60;99.90
41060;DHT22;26811;53.160;8.202;2023-11-18T22:22:21;6.70;99.90
41060;DHT22;26811;53.160;8.202;2023-11-18T22:27:21;6.70;99.90
41060;DHT22;26811;53.160;8.202;2023-11-18T22:32:22;6.80;99.90
41060;DHT22;26811;53.160;8.202;2023-11-18T22:37:22;6.80;99.90
41060;DHT22;26811;53.160;8.202;2023-11-18T22:42:23;6.90;99.90
41060;DHT22;26811;53.160;8.202;2023-11-18T22:47:24;6.90;99.90
41060;DHT22;26811;53.160;8.202;2023-11-18T22:52:25;7.10;99.90
41060;DHT22;26811;53.160;8.202;2023-11-18T22:57:26;7.10;99.90
41060;DHT22;26811;53.160;8.202;2023-11-18T23:02:26;7.10;99.90
41060;DHT22;26811;53.160;8.202;2023-11-18T23:07:32;7.20;99.90
41060;DHT22;26811;53.160;8.202;2023-11-18T23:12:33;7.30;99.90
41060;DHT22;26811;53.160;8.202;2023-11-18T23:17:33;7.30;99.90
41060;DHT22;26811;53.160;8.202;2023-11-18T23:22:34;7.30;99.90
41060;DHT22;26811;53.160;8.202;2023-11-18T23:27:34;7.40;99.90
41060;DHT22;26811;53.160;8.202;2023-11-18T23:32:37;7.40;99.90
41060;DHT22;26811;53.160;8.202;2023-11-18T23:37:40;7.50;99.90
41060;DHT22;26811;53.160;8.202;2023-11-18T23:42:42;7.60;99.90
41060;DHT22;26811;53.160;8.202;2023-11-18T23:47:45;7.70;99.90
41060;DHT22;26811;53.160;8.202;2023-11-18T23:52:50;7.80;99.90
41060;DHT22;26811;53.160;8.202;2023-11-18T23:57:51;7.90;99.90
